Saint Cloud, MN (56393)

6:36 PM CDT on July 27, 2016 (GMT -0500)
Quail Meadows | | Change Station

Elev 1039 ft 45.58 °N, 94.22 °W | Updated 4 minutes ago

Overcast
Overcast
73.4 °F
Feels Like 73 °F
N
1.7
Wind Variable Wind from NNW

Today
High -- | Low -- °F
--% Chance of Precip.
Yesterday
High -- | Low -- °F
Precip. -- in
Pressure 29.99 in
Visibility 10.0 miles
Clouds Few 3000 ft
Scattered Clouds 3600 ft
Overcast 7500 ft
Heat Index 73 °F
Dew Point 68 °F
Humidity 83%
Rainfall 0.07 in
Snow Depth Not available.
5:55 AM 8:50 PM
Last Quarter, 38% visible
METAR KSTC 272253Z 36009KT 10SM FEW030 SCT036 OVC075 23/18 A2997 RMK AO2 SLP153 T02330183
Pressure 29.99 in
Visibility 10.0 miles
Clouds Few 3000 ft
Scattered Clouds 3600 ft
Overcast 7500 ft
Heat Index 73 °F
Dew Point 68 °F
Humidity 83%
Rainfall 0.07 in
Snow Depth Not available.
5:55 AM 8:50 PM
Last Quarter, 38% visible
METAR KSTC 272253Z 36009KT 10SM FEW030 SCT036 OVC075 23/18 A2997 RMK AO2 SLP153 T02330183

10-Day Weather Forecast

Almanac

Astronomy

Jul. 27, 2016 Rise Set
Actual Time
Civil Twilight
Nautical Twilight
Astronomical Twilight
Moon
Length of Visible Light
Length of Day
Tomorrow will be .
, % of the Moon is Illuminated

Today's Extremes

State Highs State Lows

Community

WunderPhotos

Upload Photos

1,927,957 photos uploaded!

WunderBlog® & News

Nearby

Air Quality

  Air Quality AQ Index Pollutant
Not available.

Snow Depth

Station Depth Elevation

Earthquake Activity

City Distance Mag. Time & Date
Minimum magnitude displayed is 2.5.

Coastal Water Temperatures

Place Temperature

Stations

Nearby Weather Stations

Station Location Temp. Windchill Dew Point Humidity Wind Precip. Elev Updated Type
                   

Watches & Warnings

There are currently no watches in effect.